createdAt,value
2019-01-20T00:00:08.497Z,21.70
2019-01-20T00:02:37.414Z,21.03
2019-01-20T00:05:10.870Z,21.77
2019-01-20T00:07:39.966Z,21.43
2019-01-20T00:10:09.740Z,21.87
2019-01-20T00:12:38.985Z,22.83
2019-01-20T00:15:09.790Z,21.70
2019-01-20T00:17:38.693Z,21.40
2019-01-20T00:20:08.190Z,20.90
2019-01-20T00:22:37.197Z,20.50
2019-01-20T00:25:07.347Z,22.40
2019-01-20T00:27:36.596Z,22.57
2019-01-20T00:30:14.891Z,20.75
2019-01-20T00:32:43.894Z,21.50
2019-01-20T00:35:13.207Z,21.07
2019-01-20T00:37:42.238Z,21.07
2019-01-20T00:40:14.522Z,21.87
2019-01-20T00:42:43.991Z,19.40
2019-01-20T00:45:14.069Z,20.07
2019-01-20T00:47:43.013Z,20.40
2019-01-20T00:50:12.898Z,21.30
2019-01-20T00:52:41.834Z,21.33
2019-01-20T00:55:13.926Z,22.13
2019-01-20T00:57:43.565Z,20.73
2019-01-20T01:00:18.790Z,23.47
2019-01-20T01:02:47.862Z,23.40
2019-01-20T01:05:17.142Z,23.93
2019-01-20T01:07:46.138Z,26.40
2019-01-20T01:10:15.142Z,25.40
2019-01-20T01:12:44.063Z,26.90
2019-01-20T01:15:13.573Z,22.83
2019-01-20T01:17:42.909Z,24.30
2019-01-20T01:20:12.949Z,25.83
2019-01-20T01:22:41.930Z,25.67
2019-01-20T01:25:11.619Z,25.70
2019-01-20T01:27:40.601Z,26.80
2019-01-20T01:30:11.318Z,29.77
2019-01-20T01:32:40.569Z,28.53
2019-01-20T01:35:09.736Z,29.57
2019-01-20T01:37:38.694Z,37.07
2019-01-20T01:40:09.078Z,28.20
2019-01-20T01:42:38.002Z,34.43
2019-01-20T01:45:10.299Z,36.23
2019-01-20T01:47:39.301Z,37.83
2019-01-20T01:50:08.889Z,41.93
2019-01-20T01:52:37.843Z,30.10
2019-01-20T01:55:07.733Z,30.00
2019-01-20T01:57:36.998Z,38.63
2019-01-20T02:00:08.173Z,34.73
2019-01-20T02:02:37.100Z,31.77
2019-01-20T02:05:08.389Z,32.10
2019-01-20T02:07:37.427Z,29.03
2019-01-20T02:10:07.880Z,30.37
2019-01-20T02:12:36.815Z,31.73
2019-01-20T02:15:08.330Z,36.67
2019-01-20T02:17:37.350Z,35.00
2019-01-20T02:20:08.042Z,34.40
2019-01-20T02:22:37.058Z,35.23
2019-01-20T02:25:06.046Z,35.00
2019-01-20T02:27:35.012Z,34.27
2019-01-20T02:30:05.522Z,27.90
2019-01-20T02:32:34.443Z,30.67
2019-01-20T02:35:03.831Z,32.13
2019-01-20T02:37:32.773Z,27.53
2019-01-20T02:40:01.686Z,32.87
2019-01-20T02:42:32.003Z,31.33
2019-01-20T02:45:01.477Z,27.97
2019-01-20T02:47:30.481Z,30.87
2019-01-20T02:49:59.401Z,31.17
2019-01-20T02:52:28.677Z,29.43
2019-01-20T02:54:58.025Z,28.60
2019-01-20T02:57:27.371Z,29.50
2019-01-20T02:59:56.414Z,30.93
2019-01-20T03:02:25.661Z,29.63
2019-01-20T03:04:54.679Z,36.23
2019-01-20T03:07:23.631Z,30.27
2019-01-20T03:09:52.618Z,34.90
2019-01-20T03:12:21.547Z,29.87
2019-01-20T03:14:50.496Z,33.27
2019-01-20T03:17:19.415Z,38.77
2019-01-20T03:19:48.336Z,36.07
2019-01-20T03:22:17.627Z,32.07
2019-01-20T03:24:46.627Z,28.30
2019-01-20T03:27:15.537Z,31.00
2019-01-20T03:29:44.534Z,33.87
2019-01-20T03:32:13.770Z,28.27
2019-01-20T03:34:42.790Z,30.13
2019-01-20T03:37:12.074Z,29.97
2019-01-20T03:39:41.413Z,25.57
2019-01-20T03:42:12.195Z,28.17
2019-01-20T03:44:41.394Z,25.83
2019-01-20T03:47:10.444Z,24.73
2019-01-20T03:49:39.393Z,29.40
2019-01-20T03:52:08.670Z,25.77
2019-01-20T03:54:38.018Z,26.73
2019-01-20T03:57:07.436Z,25.53
2019-01-20T03:59:36.807Z,26.70
2019-01-20T04:02:06.210Z,27.10
2019-01-20T04:04:35.213Z,32.73
2019-01-20T04:07:04.148Z,39.50
2019-01-20T04:09:33.070Z,26.57
2019-01-20T04:12:01.977Z,27.70
2019-01-20T04:14:31.265Z,26.27
2019-01-20T04:17:00.273Z,30.23
2019-01-20T04:19:29.530Z,26.73
2019-01-20T04:21:58.566Z,26.17
2019-01-20T04:24:27.493Z,24.33
2019-01-20T04:26:56.742Z,24.63
2019-01-20T04:29:25.772Z,25.23
2019-01-20T04:31:54.686Z,28.63
2019-01-20T04:34:23.617Z,29.40
2019-01-20T04:36:52.893Z,28.67
2019-01-20T04:39:21.902Z,24.03
2019-01-20T04:41:50.809Z,23.07
2019-01-20T04:44:20.082Z,23.93
2019-01-20T04:46:49.081Z,23.97
2019-01-20T04:49:17.993Z,22.13
2019-01-20T04:51:47.277Z,21.73
2019-01-20T04:54:16.286Z,22.73
2019-01-20T04:56:45.530Z,23.20
2019-01-20T04:59:14.569Z,22.33
2019-01-20T05:01:43.481Z,22.10
2019-01-20T05:04:12.724Z,24.30
2019-01-20T05:06:41.753Z,24.87
2019-01-20T05:09:10.670Z,21.23
2019-01-20T05:11:39.588Z,21.73
2019-01-20T05:14:08.865Z,27.67
2019-01-20T05:16:37.879Z,20.80
2019-01-20T05:19:07.202Z,22.40
2019-01-20T05:21:36.234Z,23.80
2019-01-20T05:24:05.494Z,22.23
2019-01-20T05:26:34.830Z,23.57
2019-01-20T05:29:03.985Z,19.90
2019-01-20T05:31:33.241Z,22.13
2019-01-20T05:34:02.246Z,20.40
2019-01-20T05:36:31.182Z,20.80
2019-01-20T05:39:00.101Z,20.77
2019-01-20T05:41:29.354Z,19.37
2019-01-20T05:43:58.742Z,21.57
2019-01-20T05:46:27.737Z,20.63
2019-01-20T05:48:56.649Z,19.77
2019-01-20T05:51:26.001Z,22.23
2019-01-20T05:53:55.338Z,22.30
2019-01-20T05:56:24.678Z,21.90
2019-01-20T05:58:54.040Z,22.10
2019-01-20T06:01:23.374Z,21.97
2019-01-20T06:03:52.715Z,24.07
2019-01-20T06:06:22.077Z,23.80
2019-01-20T06:08:51.416Z,21.20
2019-01-20T06:11:20.751Z,20.33
2019-01-20T06:13:50.119Z,22.27
2019-01-20T06:16:19.450Z,23.83
2019-01-20T06:18:48.450Z,19.43
2019-01-20T06:21:17.720Z,22.23
2019-01-20T06:23:47.066Z,21.43
2019-01-20T06:26:16.407Z,21.07
2019-01-20T06:28:45.782Z,21.70
2019-01-20T06:31:14.779Z,21.47
2019-01-20T06:33:44.025Z,20.60
2019-01-20T06:36:13.394Z,21.33
2019-01-20T06:38:42.729Z,20.20
2019-01-20T06:41:12.069Z,27.83
2019-01-20T06:43:41.429Z,21.80
2019-01-20T06:46:10.440Z,22.43
2019-01-20T06:48:39.689Z,21.50
2019-01-20T06:51:08.802Z,21.80
2019-01-20T06:53:37.718Z,19.83
2019-01-20T06:56:06.977Z,20.83
2019-01-20T06:58:36.342Z,22.57
2019-01-20T07:01:05.746Z,19.37
2019-01-20T07:03:35.149Z,24.80
2019-01-20T07:06:04.812Z,19.53
2019-01-20T07:08:33.854Z,21.53
2019-01-20T07:11:03.101Z,20.40
2019-01-20T07:13:32.465Z,21.27
2019-01-20T07:16:01.806Z,21.10
2019-01-20T07:18:31.137Z,20.20
2019-01-20T07:21:00.501Z,22.03
2019-01-20T07:23:29.798Z,20.93
2019-01-20T07:25:59.176Z,21.33
2019-01-20T07:28:28.541Z,21.13
2019-01-20T07:30:57.882Z,16.53
2019-01-20T07:33:26.881Z,19.57
2019-01-20T07:35:55.835Z,20.47
2019-01-20T07:38:24.736Z,18.93
2019-01-20T07:40:53.992Z,19.10
2019-01-20T07:43:23.013Z,19.47
2019-01-20T07:45:52.256Z,25.17
2019-01-20T07:48:21.274Z,19.83
2019-01-20T07:50:50.213Z,15.50
2019-01-20T07:53:19.477Z,23.63
2019-01-20T07:55:48.814Z,19.10
2019-01-20T07:58:17.853Z,24.27
2019-01-20T08:00:47.106Z,18.10
2019-01-20T08:03:16.113Z,18.53
2019-01-20T08:05:45.392Z,22.67
2019-01-20T08:08:14.722Z,17.23
2019-01-20T08:10:43.729Z,16.57
2019-01-20T08:13:13.006Z,17.30
2019-01-20T08:15:42.001Z,19.53
2019-01-20T08:18:10.918Z,19.87
2019-01-20T08:20:39.870Z,20.17
2019-01-20T08:23:09.116Z,17.33
2019-01-20T08:25:38.457Z,20.07
2019-01-20T08:28:07.539Z,17.20
2019-01-20T08:30:36.775Z,17.13
2019-01-20T08:33:06.105Z,17.50
2019-01-20T08:35:35.470Z,24.63
2019-01-20T08:38:04.544Z,18.53
2019-01-20T08:40:34.057Z,17.10
2019-01-20T08:43:03.090Z,21.20
2019-01-20T08:45:38.059Z,16.70
2019-01-20T08:48:08.676Z,19.10
2019-01-20T08:50:37.585Z,18.53
2019-01-20T08:53:06.497Z,17.60
2019-01-20T08:55:35.774Z,19.07
2019-01-20T08:58:05.176Z,15.97
2019-01-20T09:00:34.176Z,18.20
2019-01-20T09:03:03.449Z,23.67
2019-01-20T09:05:32.470Z,20.70
2019-01-20T09:08:01.714Z,15.43
2019-01-20T09:10:31.078Z,21.40
2019-01-20T09:13:00.787Z,20.47
2019-01-20T09:15:29.790Z,18.77
2019-01-20T09:17:58.732Z,20.10
2019-01-20T09:20:28.045Z,24.70
2019-01-20T09:22:57.381Z,17.27
2019-01-20T09:25:26.751Z,19.43
2019-01-20T09:27:56.090Z,18.43
2019-01-20T09:30:25.417Z,16.37
2019-01-20T09:32:54.788Z,18.70
2019-01-20T09:35:23.792Z,15.27
2019-01-20T09:37:52.705Z,15.63
2019-01-20T09:40:21.712Z,17.87
2019-01-20T09:42:50.963Z,17.53
2019-01-20T09:45:27.657Z,19.00
2019-01-20T09:47:56.738Z,15.33
2019-01-20T09:50:26.046Z,17.13
2019-01-20T09:52:55.241Z,16.40
2019-01-20T09:55:24.145Z,21.87
2019-01-20T09:57:53.385Z,20.00
2019-01-20T10:00:27.966Z,15.30
2019-01-20T10:02:56.957Z,16.00
2019-01-20T10:05:26.202Z,16.63
2019-01-20T10:07:56.137Z,22.13
2019-01-20T10:10:25.137Z,15.63
2019-01-20T10:12:54.462Z,16.90
2019-01-20T10:15:23.822Z,17.33
2019-01-20T10:17:53.165Z,15.90
2019-01-20T10:20:25.569Z,14.53
2019-01-20T10:22:54.926Z,15.90
2019-01-20T10:25:24.331Z,14.93
2019-01-20T10:27:53.665Z,18.00
2019-01-20T10:30:24.237Z,17.20
2019-01-20T10:32:53.542Z,14.90
2019-01-20T10:35:33.369Z,19.50
2019-01-20T10:38:04.211Z,17.67
2019-01-20T10:40:33.113Z,13.97
2019-01-20T10:43:02.430Z,17.93
2019-01-20T10:45:31.796Z,17.37
2019-01-20T10:48:01.133Z,18.97
2019-01-20T10:50:30.239Z,15.40
2019-01-20T10:52:59.477Z,17.90
2019-01-20T10:55:28.814Z,17.97
2019-01-20T10:57:58.182Z,18.03
2019-01-20T11:00:33.389Z,16.00
2019-01-20T11:03:02.722Z,19.27
2019-01-20T11:05:32.829Z,15.50
2019-01-20T11:08:01.863Z,15.37
2019-01-20T11:10:31.106Z,15.50
2019-01-20T11:13:00.466Z,15.53
2019-01-20T11:15:29.792Z,15.70
2019-01-20T11:17:58.796Z,16.33
2019-01-20T11:20:28.073Z,17.33
2019-01-20T11:22:57.410Z,15.43
2019-01-20T11:25:29.586Z,17.73
2019-01-20T11:27:58.945Z,14.90
2019-01-20T11:30:28.285Z,15.97
2019-01-20T11:32:57.760Z,14.23
2019-01-20T11:35:27.121Z,13.20
2019-01-20T11:37:56.457Z,13.87
2019-01-20T11:40:25.797Z,16.30
2019-01-20T11:42:55.234Z,18.97
2019-01-20T11:45:28.357Z,16.67
2019-01-20T11:47:57.257Z,15.83
2019-01-20T11:50:26.597Z,18.03
2019-01-20T11:52:55.998Z,15.57
2019-01-20T11:55:25.411Z,15.40
2019-01-20T11:57:54.439Z,16.53
2019-01-20T12:00:32.357Z,18.73
2019-01-20T12:03:01.876Z,16.53
2019-01-20T12:05:32.437Z,16.30
2019-01-20T12:08:01.768Z,15.07
2019-01-20T12:10:30.797Z,17.17
2019-01-20T12:13:04.397Z,17.33
2019-01-20T12:15:33.800Z,19.03
2019-01-20T12:18:03.241Z,17.73
2019-01-20T12:20:32.637Z,17.93
2019-01-20T12:23:01.977Z,18.70
2019-01-20T12:25:31.342Z,20.60
2019-01-20T12:28:00.333Z,16.57
2019-01-20T12:30:32.495Z,18.37
2019-01-20T12:33:01.513Z,17.93
2019-01-20T12:35:30.767Z,17.63
2019-01-20T12:38:00.093Z,18.00
2019-01-20T12:40:34.920Z,17.60
2019-01-20T12:43:04.189Z,15.63
2019-01-20T12:45:33.737Z,16.10
2019-01-20T12:48:02.843Z,16.77
2019-01-20T12:50:32.094Z,16.40
2019-01-20T12:53:01.432Z,15.17
2019-01-20T12:55:31.221Z,16.30
2019-01-20T12:58:00.661Z,18.47
2019-01-20T13:00:29.985Z,15.93
2019-01-20T13:02:59.354Z,17.90
2019-01-20T13:05:28.756Z,19.00
2019-01-20T13:07:58.085Z,18.50
2019-01-20T13:10:27.533Z,17.03
2019-01-20T13:12:56.857Z,17.73
2019-01-20T13:15:26.198Z,16.63
2019-01-20T13:17:55.628Z,15.47
2019-01-20T13:20:26.033Z,18.10
2019-01-20T13:22:55.436Z,16.87
2019-01-20T13:25:26.938Z,16.73
2019-01-20T13:27:56.269Z,15.67
2019-01-20T13:30:27.241Z,17.33
2019-01-20T13:32:56.606Z,17.00
2019-01-20T13:35:26.374Z,18.07
2019-01-20T13:38:01.409Z,16.73
2019-01-20T13:40:45.972Z,15.70
2019-01-20T13:43:15.315Z,18.87
2019-01-20T13:45:44.644Z,19.00
2019-01-20T13:48:14.016Z,18.53
2019-01-20T13:50:43.350Z,19.50
2019-01-20T13:53:12.695Z,19.67
2019-01-20T13:55:42.059Z,20.20
2019-01-20T13:58:11.398Z,20.00
2019-01-20T14:00:40.730Z,20.77
2019-01-20T14:03:09.761Z,20.33
2019-01-20T14:05:38.749Z,24.70
2019-01-20T14:08:08.065Z,20.80
2019-01-20T14:10:37.434Z,21.27
2019-01-20T14:13:06.837Z,23.07
2019-01-20T14:15:36.169Z,23.20
2019-01-20T14:18:05.534Z,19.07
2019-01-20T14:20:34.865Z,23.43
2019-01-20T14:23:04.039Z,22.77
2019-01-20T14:25:33.318Z,19.60
2019-01-20T14:28:02.654Z,20.10
2019-01-20T14:30:33.112Z,23.53
2019-01-20T14:33:02.487Z,21.87
2019-01-20T14:35:31.818Z,20.60
2019-01-20T14:38:02.010Z,20.90
2019-01-20T14:40:31.046Z,19.13
2019-01-20T14:43:00.290Z,23.23
2019-01-20T14:45:29.621Z,23.27
2019-01-20T14:47:58.993Z,23.63
2019-01-20T14:50:28.670Z,24.03
2019-01-20T14:52:58.002Z,24.07
2019-01-20T14:55:27.380Z,25.13
2019-01-20T14:57:56.710Z,23.33
2019-01-20T15:00:37.894Z,25.13
2019-01-20T15:03:07.681Z,25.87
2019-01-20T15:05:37.067Z,24.33
2019-01-20T15:08:07.069Z,26.63
2019-01-20T15:10:36.411Z,25.37
2019-01-20T15:13:05.739Z,25.67
2019-01-20T15:15:39.442Z,25.23
2019-01-20T15:18:08.944Z,27.63
2019-01-20T15:20:38.114Z,21.60
2019-01-20T15:23:07.045Z,26.90
2019-01-20T15:25:36.361Z,22.50
2019-01-20T15:28:05.835Z,22.00
2019-01-20T15:30:35.260Z,22.73
2019-01-20T15:33:06.202Z,23.03
2019-01-20T15:35:35.538Z,24.43
2019-01-20T15:38:04.970Z,21.60
2019-01-20T15:40:34.305Z,25.07
2019-01-20T15:43:03.705Z,23.20
2019-01-20T15:45:33.065Z,22.93
2019-01-20T15:48:02.422Z,23.53
2019-01-20T15:50:52.689Z,22.77
2019-01-20T15:53:22.055Z,22.87
2019-01-20T15:55:51.476Z,22.43
2019-01-20T15:58:20.879Z,20.33
2019-01-20T16:00:50.250Z,18.43
2019-01-20T16:03:19.267Z,17.77
2019-01-20T16:05:48.222Z,16.90
2019-01-20T16:08:17.465Z,14.53
2019-01-20T16:10:46.802Z,21.90
2019-01-20T16:13:16.161Z,17.47
2019-01-20T16:15:45.506Z,17.73
2019-01-20T16:18:14.675Z,18.93
2019-01-20T16:20:43.938Z,16.70
2019-01-20T16:23:13.273Z,19.53
2019-01-20T16:25:42.610Z,16.03
2019-01-20T16:28:11.974Z,27.13
2019-01-20T16:30:40.982Z,19.13
2019-01-20T16:33:10.296Z,22.30
2019-01-20T16:35:39.741Z,27.93
2019-01-20T16:38:08.809Z,28.73
2019-01-20T16:40:38.053Z,22.93
2019-01-20T16:43:07.423Z,23.00
2019-01-20T16:45:42.143Z,21.93
2019-01-20T16:48:08.707Z,21.67
2019-01-20T16:50:38.146Z,22.07
2019-01-20T16:53:07.145Z,22.07
2019-01-20T16:55:36.390Z,26.67
2019-01-20T16:58:05.493Z,22.33
2019-01-20T17:00:37.386Z,26.50
2019-01-20T17:03:06.462Z,26.33
2019-01-20T17:05:35.749Z,24.40
2019-01-20T17:08:05.486Z,32.27
2019-01-20T17:10:37.195Z,28.00
2019-01-20T17:13:07.590Z,20.50
2019-01-20T17:15:39.726Z,21.83
2019-01-20T17:18:09.706Z,20.60
2019-01-20T17:20:38.989Z,20.67
2019-01-20T17:23:08.328Z,22.53
2019-01-20T17:25:37.664Z,21.13
2019-01-20T17:28:07.028Z,23.43
2019-01-20T17:30:36.801Z,20.60
2019-01-20T17:33:08.096Z,21.27
2019-01-20T17:35:37.133Z,18.20
2019-01-20T17:38:06.113Z,18.97
2019-01-20T17:40:35.440Z,20.20
2019-01-20T17:43:05.935Z,20.03
2019-01-20T17:45:36.227Z,20.67
2019-01-20T17:48:05.226Z,24.20
2019-01-20T17:50:35.216Z,19.97
2019-01-20T17:53:06.790Z,17.00
2019-01-20T17:55:35.890Z,21.30
2019-01-20T17:58:04.915Z,21.50
2019-01-20T18:00:35.925Z,21.77
2019-01-20T18:03:06.288Z,21.20
2019-01-20T18:05:35.485Z,19.67
2019-01-20T18:08:04.405Z,25.50
2019-01-20T18:10:33.732Z,23.00
2019-01-20T18:13:02.779Z,22.17
2019-01-20T18:15:32.103Z,25.27
2019-01-20T18:18:01.174Z,26.67
2019-01-20T18:20:32.753Z,23.47
2019-01-20T18:23:01.772Z,21.87
2019-01-20T18:25:31.244Z,22.10
2019-01-20T18:28:00.333Z,21.10
2019-01-20T18:30:31.140Z,20.10
2019-01-20T18:33:00.166Z,22.43
2019-01-20T18:35:29.458Z,20.43
2019-01-20T18:37:58.522Z,21.20
2019-01-20T18:40:27.608Z,21.00
2019-01-20T18:42:56.550Z,20.67
2019-01-20T18:45:28.133Z,20.03
2019-01-20T18:47:57.466Z,17.90
2019-01-20T18:50:28.046Z,17.47
2019-01-20T18:52:57.294Z,19.13
2019-01-20T18:55:26.374Z,18.60
2019-01-20T18:57:55.309Z,18.53
2019-01-20T19:00:27.300Z,19.63
2019-01-20T19:02:56.782Z,19.27
2019-01-20T19:05:26.175Z,20.83
2019-01-20T19:07:55.818Z,20.50
2019-01-20T19:10:24.902Z,18.53
2019-01-20T19:12:54.610Z,19.57
2019-01-20T19:15:25.166Z,19.00
2019-01-20T19:17:55.250Z,19.13
2019-01-20T19:20:26.564Z,20.83
2019-01-20T19:22:57.184Z,23.33
2019-01-20T19:25:26.242Z,20.40
2019-01-20T19:27:55.209Z,21.10
2019-01-20T19:30:27.074Z,20.57
2019-01-20T19:32:56.432Z,21.30
2019-01-20T19:35:25.987Z,19.57
2019-01-20T19:37:55.040Z,22.60
2019-01-20T19:40:24.407Z,23.93
2019-01-20T19:42:53.447Z,24.00
2019-01-20T19:45:22.382Z,26.73
2019-01-20T19:47:51.299Z,22.77
2019-01-20T19:50:20.409Z,24.43
2019-01-20T19:52:49.661Z,22.63
2019-01-20T19:55:24.228Z,23.70
2019-01-20T19:57:53.721Z,24.23
2019-01-20T20:00:28.734Z,22.63
2019-01-20T20:02:57.741Z,19.63
2019-01-20T20:05:27.080Z,23.33
2019-01-20T20:07:57.048Z,22.27
2019-01-20T20:10:27.534Z,24.47
2019-01-20T20:12:56.938Z,23.77
2019-01-20T20:15:26.519Z,22.77
2019-01-20T20:17:55.501Z,22.23
2019-01-20T20:20:24.527Z,21.57
2019-01-20T20:22:53.849Z,22.07
2019-01-20T20:25:23.620Z,22.57
2019-01-20T20:27:52.987Z,23.03
2019-01-20T20:30:27.131Z,21.50
2019-01-20T20:32:56.181Z,21.70
2019-01-20T20:35:25.272Z,21.73
2019-01-20T20:37:54.206Z,20.57
2019-01-20T20:40:23.525Z,22.03
2019-01-20T20:42:52.577Z,21.97
2019-01-20T20:45:22.531Z,21.73
2019-01-20T20:47:51.500Z,19.90
2019-01-20T20:50:20.514Z,21.47
2019-01-20T20:52:49.434Z,21.07
2019-01-20T20:55:18.418Z,20.50
2019-01-20T20:57:47.382Z,21.53
2019-01-20T21:00:17.941Z,21.13
2019-01-20T21:02:46.862Z,19.43
2019-01-20T21:05:16.142Z,20.20
2019-01-20T21:07:45.486Z,18.87
2019-01-20T21:10:16.678Z,21.80
2019-01-20T21:12:46.281Z,19.90
2019-01-20T21:15:16.562Z,18.63
2019-01-20T21:17:48.442Z,18.90
2019-01-20T21:20:20.051Z,19.30
2019-01-20T21:22:49.466Z,20.97
2019-01-20T21:25:18.877Z,20.27
2019-01-20T21:27:47.900Z,22.60
2019-01-20T21:30:26.081Z,20.40
2019-01-20T21:32:55.465Z,20.33
2019-01-20T21:35:24.482Z,21.83
2019-01-20T21:37:53.405Z,20.30
2019-01-20T21:40:22.412Z,20.23
2019-01-20T21:42:51.323Z,20.67
2019-01-20T21:45:20.243Z,20.30
2019-01-20T21:47:49.184Z,19.00
2019-01-20T21:50:19.667Z,18.63
2019-01-20T21:52:48.626Z,20.27
2019-01-20T21:55:17.899Z,18.27
2019-01-20T21:57:46.897Z,19.83
2019-01-20T22:00:20.266Z,21.30
2019-01-20T22:02:49.546Z,21.37
2019-01-20T22:05:18.575Z,23.10
2019-01-20T22:07:47.831Z,22.77
2019-01-20T22:10:17.744Z,23.67
2019-01-20T22:12:46.654Z,22.17
2019-01-20T22:15:15.570Z,21.00
2019-01-20T22:17:45.381Z,20.97
2019-01-20T22:20:18.013Z,25.43
2019-01-20T22:22:47.007Z,24.80
2019-01-20T22:25:16.354Z,22.27
2019-01-20T22:27:45.444Z,23.07
2019-01-20T22:30:15.589Z,22.33
2019-01-20T22:32:44.570Z,22.13
2019-01-20T22:35:13.489Z,24.23
2019-01-20T22:37:42.406Z,22.67
2019-01-20T22:40:14.410Z,21.77
2019-01-20T22:42:43.738Z,26.17
2019-01-20T22:45:13.804Z,22.17
2019-01-20T22:47:42.747Z,24.80
2019-01-20T22:50:12.481Z,24.90
2019-01-20T22:52:41.793Z,26.60
2019-01-20T22:55:16.049Z,24.83
2019-01-20T22:57:45.220Z,23.53
2019-01-20T23:00:18.722Z,23.67
2019-01-20T23:02:48.150Z,24.67
2019-01-20T23:05:17.153Z,23.87
2019-01-20T23:07:46.358Z,22.07
2019-01-20T23:10:15.433Z,21.77
2019-01-20T23:12:49.254Z,22.80
2019-01-20T23:15:18.174Z,24.13
2019-01-20T23:17:47.491Z,24.40
2019-01-20T23:20:17.915Z,23.77
2019-01-20T23:22:46.918Z,23.20
2019-01-20T23:25:16.193Z,21.67
2019-01-20T23:27:45.264Z,22.60
2019-01-20T23:30:15.665Z,23.20
2019-01-20T23:32:44.772Z,22.87
2019-01-20T23:35:13.749Z,22.07
2019-01-20T23:37:42.996Z,21.50
2019-01-20T23:40:16.309Z,21.03
2019-01-20T23:42:45.645Z,22.40
2019-01-20T23:45:15.058Z,22.80
2019-01-20T23:47:44.436Z,23.23
2019-01-20T23:50:16.261Z,21.67
2019-01-20T23:52:45.420Z,21.30
2019-01-20T23:55:14.525Z,20.13
2019-01-20T23:57:43.779Z,19.97
